Time;durP1;ratioP1;P1;durP2;ratioP2;P2;SDS_P1;SDS_P2;PMS_P1;PMS_P2;Temp;Humidity;BMP_temperature;BMP_pressure;BME280_temperature;BME280_humidity;BME280_pressure;Samples;Min_cycle;Max_cycle;Signal;HPM_P1;HPM_P2
2021/12/03 00:02:30;;;;;;;9.65;5.47;;;;;;;1.67;98.51;99277.41;8379003;28;20083;-85
2021/12/03 00:06:35;;;;;;;10.70;6.35;;;;;;;1.60;98.94;99285.50;8370078;28;20497;-84
2021/12/03 00:10:37;;;;;;;15.70;7.07;;;;;;;1.63;99.24;99297.84;8369315;28;20559;-84
2021/12/03 00:14:42;;;;;;;14.50;7.30;;;;;;;1.65;100.00;99306.63;8394183;28;20190;-83
2021/12/03 00:18:43;;;;;;;14.38;7.30;;;;;;;1.62;100.00;99298.88;8376451;28;20295;-83
2021/12/03 00:22:45;;;;;;;15.27;6.15;;;;;;;1.54;100.00;99302.63;8386430;28;20060;-84
2021/12/03 00:26:46;;;;;;;12.68;6.40;;;;;;;1.41;100.00;99308.84;8378744;28;20040;-84
2021/12/03 00:30:49;;;;;;;15.23;6.75;;;;;;;1.24;100.00;99297.50;8397458;28;20048;-84
2021/12/03 00:34:50;;;;;;;13.07;6.03;;;;;;;1.05;100.00;99309.09;8380609;28;20072;-84
2021/12/03 00:38:55;;;;;;;15.52;7.22;;;;;;;0.89;100.00;99321.94;8400427;28;20094;-84
2021/12/03 00:42:56;;;;;;;10.75;5.95;;;;;;;0.66;100.00;99326.81;8355743;28;20067;-83
2021/12/03 00:46:58;;;;;;;16.38;5.75;;;;;;;0.48;100.00;99324.59;8375183;28;20073;-83
2021/12/03 00:50:59;;;;;;;13.20;5.90;;;;;;;0.31;100.00;99340.28;8385611;28;20144;-82
2021/12/03 00:55:00;;;;;;;13.15;6.43;;;;;;;0.17;100.00;99343.91;8388189;28;20040;-84
2021/12/03 00:59:00;;;;;;;17.17;7.47;;;;;;;0.05;100.00;99345.44;8374672;28;20055;-84
2021/12/03 01:03:02;;;;;;;14.15;7.18;;;;;;;-0.07;100.00;99347.81;8380056;28;20087;-84
2021/12/03 01:07:03;;;;;;;12.80;6.00;;;;;;;-0.16;100.00;99348.97;8362873;28;20071;-83
2021/12/03 01:11:05;;;;;;;13.95;6.53;;;;;;;-0.24;100.00;99352.63;8374931;28;20389;-82
2021/12/03 01:15:09;;;;;;;8.48;4.30;;;;;;;-0.34;100.00;99344.00;8361002;28;20393;-81
2021/12/03 01:19:10;;;;;;;11.00;6.30;;;;;;;-0.44;100.00;99351.59;8393792;28;20044;-82
2021/12/03 01:23:14;;;;;;;13.60;5.85;;;;;;;-0.51;100.00;99362.31;8387383;28;20156;-83
2021/12/03 01:27:14;;;;;;;12.73;6.10;;;;;;;-0.58;100.00;99354.13;8384393;28;20082;-82
2021/12/03 01:31:16;;;;;;;11.82;5.95;;;;;;;-0.66;100.00;99358.78;8337426;28;20449;-82
2021/12/03 01:35:19;;;;;;;17.10;6.60;;;;;;;-0.72;100.00;99371.22;8362866;28;20048;-82
2021/12/03 01:39:19;;;;;;;15.07;6.55;;;;;;;-0.76;100.00;99370.75;8396337;28;20051;-81
2021/12/03 01:43:24;;;;;;;14.05;6.68;;;;;;;-0.83;100.00;99366.25;8378231;28;20052;-83
2021/12/03 01:47:24;;;;;;;12.90;5.60;;;;;;;-0.86;100.00;99377.47;8363138;28;20070;-82
2021/12/03 01:51:26;;;;;;;12.95;5.72;;;;;;;-0.89;100.00;99392.22;8380166;28;20045;-83
2021/12/03 01:55:26;;;;;;;13.85;5.57;;;;;;;-0.96;100.00;99389.41;8345012;28;20059;-81
2021/12/03 01:59:27;;;;;;;15.70;7.57;;;;;;;-1.01;100.00;99388.28;8357076;28;20503;-83
2021/12/03 02:03:31;;;;;;;13.73;6.57;;;;;;;-1.05;100.00;99392.38;8393683;28;20500;-83
2021/12/03 02:07:31;;;;;;;17.40;6.45;;;;;;;-1.11;100.00;99404.78;8382548;28;20048;-83
2021/12/03 02:11:32;;;;;;;13.18;6.38;;;;;;;-1.10;100.00;99400.19;8361186;28;20036;-82
2021/12/03 02:15:33;;;;;;;15.65;7.15;;;;;;;-1.15;100.00;99388.09;8379904;28;20036;-83
2021/12/03 02:19:34;;;;;;;16.48;6.95;;;;;;;-1.19;100.00;99389.50;8373414;28;20068;-82
2021/12/03 02:23:36;;;;;;;16.27;7.05;;;;;;;-1.20;100.00;99400.47;8363014;28;20045;-82
2021/12/03 02:27:36;;;;;;;15.45;7.05;;;;;;;-1.23;100.00;99400.84;8378202;28;20033;-83
2021/12/03 02:31:38;;;;;;;17.30;7.43;;;;;;;-1.27;100.00;99419.31;8379157;28;20060;-83
2021/12/03 02:35:40;;;;;;;18.20;7.43;;;;;;;-1.29;100.00;99418.63;8349292;28;20394;-82
2021/12/03 02:39:40;;;;;;;17.07;7.30;;;;;;;-1.32;100.00;99416.28;8363117;28;20076;-83
2021/12/03 02:43:41;;;;;;;17.15;7.03;;;;;;;-1.32;100.00;99423.56;8367021;28;20037;-83
2021/12/03 02:47:42;;;;;;;21.63;8.10;;;;;;;-1.34;100.00;99431.00;8382960;28;20053;-83
2021/12/03 02:51:43;;;;;;;20.40;8.07;;;;;;;-1.37;100.00;99432.22;8381855;28;20040;-83
2021/12/03 02:55:44;;;;;;;21.58;8.15;;;;;;;-1.40;100.00;99427.19;8378163;28;20046;-83
2021/12/03 02:59:44;;;;;;;20.75;8.13;;;;;;;-1.42;100.00;99434.66;8380784;28;20036;-83
2021/12/03 03:03:45;;;;;;;24.33;8.05;;;;;;;-1.39;100.00;99434.28;8349412;28;20067;-83
2021/12/03 03:07:46;;;;;;;18.35;8.45;;;;;;;-1.38;100.00;99434.09;8355128;28;20095;-83
2021/12/03 03:11:47;;;;;;;20.75;8.82;;;;;;;-1.40;100.00;99428.03;8381614;28;20063;-84
2021/12/03 03:15:47;;;;;;;22.13;8.95;;;;;;;-1.45;100.00;99438.53;8369884;28;20055;-83
2021/12/03 03:19:48;;;;;;;19.70;8.50;;;;;;;-1.49;100.00;99445.31;8369303;28;20037;-83
2021/12/03 03:23:49;;;;;;;21.85;9.07;;;;;;;-1.53;100.00;99444.00;8344320;28;20048;-84
2021/12/03 03:27:50;;;;;;;20.17;8.48;;;;;;;-1.54;100.00;99452.31;8378461;28;20203;-83
2021/12/03 03:31:51;;;;;;;20.00;8.15;;;;;;;-1.55;100.00;99456.00;8375713;28;20044;-83
2021/12/03 03:35:52;;;;;;;22.77;9.18;;;;;;;-1.59;100.00;99455.53;8345940;28;20106;-84
2021/12/03 03:39:52;;;;;;;23.83;9.43;;;;;;;-1.61;100.00;99468.38;8359597;28;20434;-83
2021/12/03 03:44:31;;;;;;;24.02;9.65;;;;;;;-1.58;100.00;99462.63;8366864;28;20046;-84
2021/12/03 03:49:27;;;;;;;29.25;10.45;;;;;;;-1.53;100.00;99454.81;9157375;22;20105;-83
2021/12/03 03:53:52;;;;;;;25.10;10.23;;;;;;;-1.43;100.00;99462.66;8247064;28;20042;-82
2021/12/03 03:58:31;;;;;;;25.80;10.05;;;;;;;-1.36;100.00;99460.09;8236870;28;20038;-83
2021/12/03 04:03:19;;;;;;;25.95;10.07;;;;;;;-1.36;100.00;99462.81;8248045;28;20034;-83
2021/12/03 04:07:43;;;;;;;23.35;8.88;;;;;;;-1.44;100.00;99464.53;8226661;28;20096;-84
2021/12/03 04:12:38;;;;;;;24.20;9.68;;;;;;;-1.52;100.00;99459.19;8251058;28;20491;-85
2021/12/03 04:17:03;;;;;;;20.25;9.35;;;;;;;-1.61;100.00;99468.38;8163097;29;20039;-84
2021/12/03 04:21:40;;;;;;;24.60;10.43;;;;;;;-1.67;100.00;99469.09;8219403;28;20055;-84
2021/12/03 04:26:06;;;;;;;25.40;10.68;;;;;;;-1.71;100.00;99471.31;8252184;28;20069;-83
2021/12/03 04:30:18;;;;;;;24.58;9.77;;;;;;;-1.72;100.00;99474.22;8225050;28;20078;-83
2021/12/03 04:34:36;;;;;;;28.38;10.25;;;;;;;-1.76;100.00;99475.56;8259922;28;20038;-83
2021/12/03 04:38:39;;;;;;;25.25;9.85;;;;;;;-1.81;100.00;99480.66;8273372;28;20034;-84
2021/12/03 04:42:56;;;;;;;26.05;9.35;;;;;;;-1.83;100.00;99484.41;8252850;28;20644;-84
2021/12/03 04:46:57;;;;;;;21.95;9.40;;;;;;;-1.84;100.00;99482.72;8257804;28;20045;-83
2021/12/03 04:50:57;;;;;;;20.13;9.25;;;;;;;-1.81;100.00;99483.38;8264146;28;20122;-84
2021/12/03 04:55:00;;;;;;;21.23;9.80;;;;;;;-1.80;100.00;99479.66;8253546;28;20448;-84
2021/12/03 04:59:01;;;;;;;24.42;8.77;;;;;;;-1.78;100.00;99483.03;8235983;28;20146;-83
2021/12/03 05:03:01;;;;;;;19.65;8.90;;;;;;;-1.78;100.00;99477.63;8255425;28;20459;-82
2021/12/03 05:07:27;;;;;;;19.90;7.80;;;;;;;-1.79;100.00;99478.63;8260915;28;20114;-83
2021/12/03 05:11:26;;;;;;;17.27;8.10;;;;;;;-1.79;100.00;99490.28;8265028;28;20046;-83
2021/12/03 05:15:27;;;;;;;22.90;7.93;;;;;;;-1.83;100.00;99492.50;8262284;28;20050;-83
2021/12/03 05:19:28;;;;;;;20.30;8.23;;;;;;;-1.85;100.00;99494.53;8266281;28;20413;-83
2021/12/03 05:23:30;;;;;;;26.85;9.20;;;;;;;-1.86;100.00;99490.16;8267777;28;20038;-83
2021/12/03 05:27:31;;;;;;;18.02;8.65;;;;;;;-1.87;100.00;99504.69;8265997;28;20073;-83
2021/12/03 05:31:32;;;;;;;18.63;8.18;;;;;;;-1.88;100.00;99508.38;8252145;28;20038;-83
2021/12/03 05:35:32;;;;;;;20.25;8.98;;;;;;;-1.89;100.00;99509.41;8248950;28;20045;-84
2021/12/03 05:39:34;;;;;;;18.95;7.60;;;;;;;-1.90;100.00;99496.94;8263762;28;20054;-83
2021/12/03 05:43:34;;;;;;;22.05;8.07;;;;;;;-1.92;100.00;99504.38;8241239;28;20046;-82
2021/12/03 05:47:35;;;;;;;21.20;8.23;;;;;;;-1.91;100.00;99506.03;8231414;28;20056;-83
2021/12/03 05:51:35;;;;;;;19.52;7.70;;;;;;;-1.90;100.00;99513.16;8262208;28;20050;-83
2021/12/03 05:55:36;;;;;;;17.55;6.97;;;;;;;-1.91;100.00;99516.00;8240457;28;20038;-84
2021/12/03 05:59:37;;;;;;;18.65;7.72;;;;;;;-1.91;100.00;99532.22;8208321;28;20039;-84
2021/12/03 06:03:37;;;;;;;23.08;8.50;;;;;;;-1.90;100.00;99521.25;8237370;28;20043;-84
2021/12/03 06:07:38;;;;;;;18.27;7.75;;;;;;;-1.89;100.00;99525.63;8254882;28;20038;-84
2021/12/03 06:11:38;;;;;;;16.33;6.93;;;;;;;-1.88;100.00;99515.66;8231171;28;20050;-84
2021/12/03 06:15:39;;;;;;;19.83;8.05;;;;;;;-1.88;100.00;99519.19;8257832;28;20535;-83
2021/12/03 06:19:40;;;;;;;16.33;7.32;;;;;;;-1.85;100.00;99520.69;8261773;28;20046;-83
2021/12/03 06:23:41;;;;;;;15.00;6.85;;;;;;;-1.80;100.00;99528.28;8259694;28;20094;-85
2021/12/03 06:27:42;;;;;;;14.43;6.53;;;;;;;-1.82;100.00;99523.03;8244256;28;20066;-84
2021/12/03 06:31:42;;;;;;;18.27;7.30;;;;;;;-1.85;100.00;99536.91;8252650;28;20038;-83
2021/12/03 06:35:42;;;;;;;16.13;6.70;;;;;;;-1.85;100.00;99540.44;8269410;28;20061;-82
2021/12/03 06:39:43;;;;;;;15.93;6.45;;;;;;;-1.85;100.00;99551.25;8254395;28;20050;-83
2021/12/03 06:43:43;;;;;;;15.23;7.10;;;;;;;-1.85;100.00;99551.25;8245941;28;20038;-83
2021/12/03 06:47:44;;;;;;;15.00;6.43;;;;;;;-1.88;100.00;99553.47;8265085;28;20068;-82
2021/12/03 06:51:47;;;;;;;13.00;6.30;;;;;;;-1.83;100.00;99562.72;8241802;28;20070;-83
2021/12/03 06:56:05;;;;;;;12.57;6.18;;;;;;;-1.78;100.00;99555.97;8247374;28;20175;-85
2021/12/03 07:00:06;;;;;;;16.13;6.70;;;;;;;-1.74;100.00;99568.94;8254960;28;20043;-81
2021/12/03 07:04:07;;;;;;;17.95;6.60;;;;;;;-1.76;100.00;99568.25;8240406;28;20038;-80
2021/12/03 07:08:07;;;;;;;12.48;6.60;;;;;;;-1.71;100.00;99560.47;8224814;28;20099;-82
2021/12/03 07:12:09;;;;;;;13.18;6.38;;;;;;;-1.65;100.00;99565.16;8233614;28;20074;-80
2021/12/03 07:16:10;;;;;;;14.27;6.47;;;;;;;-1.58;100.00;99565.28;8259991;28;20050;-82
2021/12/03 07:20:11;;;;;;;14.55;6.43;;;;;;;-1.53;100.00;99573.72;8249921;28;20419;-80
2021/12/03 07:24:12;;;;;;;18.88;6.75;;;;;;;-1.50;100.00;99567.94;8249207;28;20134;-80
2021/12/03 07:28:13;;;;;;;12.18;5.93;;;;;;;-1.50;100.00;99573.34;8258541;28;20053;-80
2021/12/03 07:32:20;;;;;;;13.13;6.35;;;;;;;-1.43;100.00;99585.16;8250510;28;20499;-81
2021/12/03 07:36:21;;;;;;;15.45;7.20;;;;;;;-1.35;100.00;99588.81;8238012;28;20106;-80
2021/12/03 07:40:21;;;;;;;12.93;6.32;;;;;;;-1.32;100.00;99591.16;8261155;28;20066;-80
2021/12/03 07:55:08;;;;;;;14.02;6.05;;;;;;;-1.07;100.00;99594.53;8250631;28;20049;-80
2021/12/03 07:59:08;;;;;;;16.30;7.40;;;;;;;-1.01;100.00;99605.50;8249550;28;20054;-82
2021/12/03 08:03:09;;;;;;;14.35;7.07;;;;;;;-0.93;100.00;99613.53;8235947;28;20050;-81
2021/12/03 08:07:09;;;;;;;15.13;7.00;;;;;;;-0.84;100.00;99616.19;8230993;28;20046;-80
2021/12/03 08:11:09;;;;;;;17.75;7.80;;;;;;;-0.76;100.00;99622.38;8246248;28;20050;-82
2021/12/03 08:15:11;;;;;;;18.95;8.45;;;;;;;-0.62;100.00;99622.63;8250651;28;20081;-81
2021/12/03 08:19:11;;;;;;;18.27;8.10;;;;;;;-0.55;100.00;99626.25;8263190;28;20165;-80
2021/12/03 08:23:12;;;;;;;13.00;6.68;;;;;;;-0.37;100.00;99634.06;8243611;28;20042;-82
2021/12/03 08:27:13;;;;;;;18.17;7.70;;;;;;;-0.14;100.00;99634.84;8235844;28;20042;-82
2021/12/03 08:31:15;;;;;;;15.70;7.32;;;;;;;-0.05;100.00;99622.88;8246654;28;20046;-80
2021/12/03 08:35:15;;;;;;;13.15;7.93;;;;;;;-0.01;100.00;99637.72;8251229;28;20070;-83
2021/12/03 08:39:16;;;;;;;18.88;7.78;;;;;;;-0.08;100.00;99635.97;8259731;28;20431;-82
2021/12/03 08:43:16;;;;;;;14.70;7.25;;;;;;;-0.14;100.00;99626.72;8267649;28;20046;-81
2021/12/03 08:47:17;;;;;;;15.25;7.25;;;;;;;-0.02;100.00;99625.22;8254543;28;20049;-81
2021/12/03 08:55:39;;;;;;;16.45;7.93;;;;;;;0.09;99.66;99615.81;8260336;28;20039;-81
2021/12/03 08:59:40;;;;;;;13.93;6.93;;;;;;;0.32;98.94;99620.25;8224214;28;20055;-81
2021/12/03 09:03:40;;;;;;;14.13;7.93;;;;;;;0.50;97.74;99623.41;8224252;28;20047;-81
2021/12/03 09:07:41;;;;;;;17.40;7.68;;;;;;;0.54;96.74;99613.06;8256607;28;20034;-82
2021/12/03 09:11:42;;;;;;;17.08;7.05;;;;;;;0.55;96.22;99612.84;8268386;28;20057;-81
2021/12/03 09:15:51;;;;;;;15.50;8.13;;;;;;;0.49;96.83;99610.06;8257004;28;20464;-80
2021/12/03 09:24:11;;;;;;;15.70;7.78;;;;;;;0.33;96.52;99592.16;8270397;28;20109;-84
2021/12/03 09:28:13;;;;;;;14.90;6.95;;;;;;;0.32;96.21;99609.41;8263334;28;20100;-82
2021/12/03 09:32:21;;;;;;;14.82;7.47;;;;;;;0.51;96.49;99614.28;8237455;28;20431;-80
2021/12/03 09:36:21;;;;;;;16.17;7.45;;;;;;;0.73;95.24;99601.59;8236347;28;20064;-80
2021/12/03 09:40:24;;;;;;;16.73;6.78;;;;;;;0.77;95.01;99618.31;8268432;28;20049;-79
2021/12/03 09:44:29;;;;;;;18.90;8.05;;;;;;;0.70;94.82;99615.53;8252424;28;20396;-80
2021/12/03 09:53:10;;;;;;;17.08;7.28;;;;;;;0.60;95.47;99607.72;8237939;28;20046;-82
2021/12/03 09:57:16;;;;;;;16.33;8.30;;;;;;;0.76;95.73;99619.34;8261435;28;20048;-80
2021/12/03 10:01:31;;;;;;;18.35;7.60;;;;;;;0.87;94.31;99603.41;8253300;28;20049;-81
2021/12/03 10:14:33;;;;;;;15.18;7.43;;;;;;;1.40;92.44;99600.41;8256573;28;20456;-82
2021/12/03 10:18:44;;;;;;;15.50;7.55;;;;;;;1.44;91.79;99603.56;8254637;28;20046;-81
2021/12/03 10:27:23;;;;;;;16.10;7.90;;;;;;;1.50;90.99;99605.47;8270019;28;20513;-82
2021/12/03 10:36:10;;;;;;;14.63;7.05;;;;;;;1.41;90.64;99606.66;8256579;28;20049;-86
2021/12/03 10:45:16;;;;;;;13.13;6.60;;;;;;;1.46;91.74;99590.59;8253787;28;20050;-83
2021/12/03 10:49:32;;;;;;;17.25;7.82;;;;;;;1.45;91.99;99591.66;8250968;28;20392;-81
2021/12/03 10:53:45;;;;;;;15.60;8.25;;;;;;;1.52;91.98;99592.56;8259705;28;20101;-82
2021/12/03 10:58:14;;;;;;;16.00;7.70;;;;;;;1.44;91.26;99579.13;8257386;28;20385;-81
2021/12/03 11:06:47;;;;;;;14.65;7.20;;;;;;;1.50;92.92;99549.28;8243201;28;20042;-82
2021/12/03 11:15:27;;;;;;;16.23;7.13;;;;;;;1.51;92.83;99553.66;8255698;28;20102;-81
2021/12/03 11:28:19;;;;;;;11.20;5.90;;;;;;;1.42;92.77;99538.56;8241184;28;20039;-81
2021/12/03 12:47:38;;;;;;;12.60;6.18;;;;;;;2.12;92.71;99484.25;8246004;28;20065;-81
2021/12/03 13:40:17;;;;;;;11.80;5.45;;;;;;;1.81;89.57;99433.91;8290118;28;20074;-79
2021/12/03 14:47:38;;;;;;;13.52;3.55;;;;;;;1.88;88.53;99380.47;8291447;28;20046;-80
2021/12/03 14:51:48;;;;;;;6.20;2.50;;;;;;;1.94;88.71;99357.91;8290238;28;20058;-80
2021/12/03 14:55:53;;;;;;;7.05;3.45;;;;;;;1.93;88.19;99356.22;8274128;28;20081;-80
2021/12/03 14:59:58;;;;;;;6.22;2.72;;;;;;;1.90;88.33;99353.91;8283715;28;20458;-79
2021/12/03 15:13:12;;;;;;;4.85;2.92;;;;;;;1.64;89.12;99327.53;8275832;28;20558;-80
2021/12/03 15:21:55;;;;;;;7.45;3.30;;;;;;;1.61;89.58;99333.38;8282377;28;20042;-80
2021/12/03 15:56:14;;;;;;;8.95;3.50;;;;;;;1.25;89.72;99282.03;8267999;28;20065;-80
2021/12/03 16:04:40;;;;;;;8.30;3.33;;;;;;;1.25;90.36;99285.59;8285170;28;20133;-80
2021/12/03 16:08:43;;;;;;;9.57;4.35;;;;;;;1.22;90.93;99290.59;8285190;28;20564;-80
2021/12/03 16:12:52;;;;;;;13.57;5.57;;;;;;;1.13;91.67;99279.06;8293162;28;20105;-79
2021/12/03 16:21:27;;;;;;;17.13;6.45;;;;;;;1.16;93.41;99278.69;8279597;28;20065;-79
2021/12/03 16:25:56;;;;;;;16.17;6.60;;;;;;;1.07;93.60;99275.31;8286986;28;20096;-79
2021/12/03 16:55:27;;;;;;;14.93;6.15;;;;;;;1.30;93.25;99258.69;8290314;28;20089;-80
2021/12/03 16:59:28;;;;;;;13.45;6.60;;;;;;;1.32;92.52;99245.75;8280665;28;20443;-79
2021/12/03 17:04:22;;;;;;;14.70;6.38;;;;;;;1.30;92.37;99233.41;8296167;28;20046;-80
2021/12/03 17:51:44;;;;;;;10.85;4.78;;;;;;;1.73;88.92;99163.31;8279428;28;20085;-79
2021/12/03 18:00:11;;;;;;;10.00;5.43;;;;;;;1.85;88.54;99152.66;8292109;28;20074;-80
2021/12/03 18:51:17;;;;;;;13.32;5.10;;;;;;;2.07;86.95;99082.59;8295454;28;20046;-81
2021/12/03 18:55:34;;;;;;;8.23;4.15;;;;;;;2.07;86.98;99070.91;8286084;28;20494;-80
2021/12/03 18:59:40;;;;;;;8.30;4.53;;;;;;;2.02;86.69;99077.81;8274659;28;20053;-80
2021/12/03 19:12:04;;;;;;;13.30;4.82;;;;;;;2.01;86.88;99051.69;8291101;28;20042;-81
2021/12/03 19:16:09;;;;;;;13.75;4.93;;;;;;;2.01;87.03;99045.41;8281652;28;20053;-81
2021/12/03 19:20:14;;;;;;;8.90;4.53;;;;;;;2.03;87.02;99037.91;8268885;28;20050;-81
2021/12/03 19:24:16;;;;;;;11.00;4.65;;;;;;;2.09;87.00;99039.75;8302339;28;20061;-80
2021/12/03 19:28:18;;;;;;;;;;;;;;;2.04;87.79;99015.94;8290792;28;20053;-81
2021/12/03 19:32:19;;;;;;;10.43;4.68;;;;;;;2.14;86.98;99006.47;8294430;28;20263;-80
2021/12/03 19:36:24;;;;;;;10.00;4.63;;;;;;;2.10;87.06;99003.38;8282513;28;20081;-82
2021/12/03 19:40:31;;;;;;;9.82;4.20;;;;;;;2.08;86.17;99007.34;8295919;28;20058;-81
2021/12/03 19:44:56;;;;;;;10.60;4.03;;;;;;;2.09;85.82;99007.13;8293244;28;20064;-80
2021/12/03 19:52:59;;;;;;;9.70;4.50;;;;;;;2.15;85.03;98989.97;8300660;28;20041;-82
2021/12/03 19:56:59;;;;;;;7.72;4.07;;;;;;;2.15;85.22;98979.09;8260105;28;20077;-80
2021/12/03 20:01:00;;;;;;;9.43;3.55;;;;;;;2.15;84.75;98981.81;8284369;28;20553;-81
2021/12/03 20:05:00;;;;;;;7.00;3.90;;;;;;;2.27;85.04;98980.09;8268324;28;20053;-80
2021/12/03 20:09:03;;;;;;;6.43;3.55;;;;;;;2.30;84.58;98981.53;8275542;28;20042;-79
2021/12/03 20:13:06;;;;;;;;;;;;;;;2.32;83.68;98984.03;8261714;28;20502;-80
2021/12/03 20:17:51;;;;;;;10.50;4.57;;;;;;;2.32;84.19;98967.72;8285584;28;19920;-79
2021/12/03 20:21:31;;;;;;;7.40;3.70;;;;;;;2.36;84.67;98960.81;8293511;28;20165;-81
2021/12/03 20:25:54;;;;;;;8.65;3.72;;;;;;;2.28;84.21;98951.84;8294319;28;20100;-80
2021/12/03 20:30:00;;;;;;;8.13;4.25;;;;;;;2.28;84.79;98951.84;8284875;28;20064;-81
2021/12/03 20:38:08;;;;;;;8.23;4.00;;;;;;;2.27;84.34;98933.88;8280588;28;20053;-80
2021/12/03 20:46:32;;;;;;;9.75;4.43;;;;;;;2.29;84.25;98925.50;8291098;28;20088;-81
2021/12/03 21:11:55;;;;;;;7.55;4.00;;;;;;;2.39;83.37;98895.13;8294120;28;20045;-79
2021/12/03 21:20:08;;;;;;;8.85;3.80;;;;;;;2.33;84.19;98887.84;8288326;28;20113;-80
2021/12/03 21:24:11;;;;;;;7.28;3.92;;;;;;;2.35;83.76;98880.28;8303392;28;20041;-82
2021/12/03 21:44:49;;;;;;;6.97;3.53;;;;;;;2.40;82.71;98856.00;8278282;28;20120;-80
2021/12/03 21:48:53;;;;;;;6.63;3.50;;;;;;;2.43;83.04;98852.84;8295985;28;20053;-81
2021/12/03 21:52:53;;;;;;;8.07;3.80;;;;;;;2.37;83.46;98837.41;8302010;28;20069;-81
2021/12/03 21:57:00;;;;;;;7.47;3.47;;;;;;;2.37;83.97;98842.84;8297699;28;20049;-80
2021/12/03 22:01:02;;;;;;;4.93;3.28;;;;;;;2.32;84.03;98840.81;8280050;28;20092;-82
2021/12/03 22:05:05;;;;;;;10.50;3.97;;;;;;;2.37;83.97;98834.69;8280811;28;20073;-80
2021/12/03 22:09:09;;;;;;;6.60;2.90;;;;;;;2.40;83.98;98826.09;8302098;28;20095;-81
2021/12/03 22:13:09;;;;;;;9.18;3.45;;;;;;;2.35;82.65;98820.47;8297313;28;20042;-80
2021/12/03 22:17:09;;;;;;;6.05;2.80;;;;;;;2.38;82.23;98820.03;8282279;28;20058;-79
2021/12/03 22:21:11;;;;;;;11.63;3.45;;;;;;;2.48;82.70;98804.06;8289173;28;20044;-79
2021/12/03 22:25:11;;;;;;;5.13;3.13;;;;;;;2.50;82.05;98807.41;8293008;28;20069;-82
2021/12/03 22:29:13;;;;;;;8.32;2.70;;;;;;;2.50;81.65;98791.91;8274323;28;20079;-82
2021/12/03 22:33:15;;;;;;;6.57;3.38;;;;;;;2.53;81.22;98789.78;8287976;28;20084;-82
2021/12/03 22:37:16;;;;;;;6.93;3.07;;;;;;;2.54;81.41;98784.13;8284385;28;20041;-82
2021/12/03 22:41:17;;;;;;;5.13;2.92;;;;;;;2.57;81.59;98772.81;8299347;28;20080;-82
2021/12/03 22:45:22;;;;;;;6.55;3.00;;;;;;;2.59;81.90;98769.84;8295395;28;20503;-83
2021/12/03 22:53:33;;;;;;;5.90;3.63;;;;;;;2.54;83.15;98773.25;8295182;28;20046;-81
2021/12/03 22:57:33;;;;;;;8.32;3.33;;;;;;;2.47;83.38;98767.91;8281921;28;20049;-83
2021/12/03 23:01:34;;;;;;;9.38;3.38;;;;;;;2.47;83.47;98758.91;8251105;28;20621;-83
2021/12/03 23:05:34;;;;;;;7.55;2.90;;;;;;;2.36;84.15;98765.06;8280949;28;20046;-82
2021/12/03 23:09:36;;;;;;;6.18;2.38;;;;;;;2.37;85.02;98759.38;8288796;28;20465;-80
2021/12/03 23:13:37;;;;;;;7.00;2.93;;;;;;;2.38;85.87;98754.78;8289361;28;20096;-82
2021/12/03 23:17:37;;;;;;;8.35;3.03;;;;;;;2.24;86.32;98749.47;8294832;28;20470;-82
2021/12/03 23:21:38;;;;;;;4.38;2.20;;;;;;;2.18;87.19;98739.50;8305783;28;20128;-81
2021/12/03 23:25:41;;;;;;;6.90;3.00;;;;;;;2.06;88.90;98733.09;8300523;28;20070;-82
2021/12/03 23:29:41;;;;;;;7.18;2.80;;;;;;;2.03;89.42;98722.69;8292541;28;20100;-81
2021/12/03 23:33:42;;;;;;;7.82;2.78;;;;;;;2.00;89.62;98707.66;8280885;28;20053;-82
2021/12/03 23:37:42;;;;;;;6.78;2.85;;;;;;;1.99;90.63;98707.84;8290328;28;20109;-82
2021/12/03 23:41:43;;;;;;;4.70;2.08;;;;;;;1.97;90.46;98688.25;8297804;28;20052;-81
2021/12/03 23:45:43;;;;;;;5.80;2.42;;;;;;;1.99;89.89;98677.97;8285821;28;20407;-82
2021/12/03 23:49:43;;;;;;;5.93;2.38;;;;;;;2.01;89.42;98665.00;8294461;28;20080;-81
2021/12/03 23:53:44;;;;;;;7.63;2.65;;;;;;;2.12;89.07;98663.47;8278556;28;20042;-82
2021/12/03 23:57:44;;;;;;;5.43;2.20;;;;;;;2.22;87.85;98648.28;8267352;28;20053;-80
